Time;durP1;ratioP1;P1;durP2;ratioP2;P2;SDS_P1;SDS_P2;PMS_P1;PMS_P2;Temp;Humidity;BMP_temperature;BMP_pressure;BME280_temperature;BME280_humidity;BME280_pressure;Samples;Min_cycle;Max_cycle;Signal;HPM_P1;HPM_P2
2024/04/23 00:00:04;;;;;;;7.68;3.53;;;;;;;1.08;81.72;101805.50;6279324;22;20360;-86
2024/04/23 00:03:16;;;;;;;5.78;3.47;;;;;;;1.06;81.92;101803.72;6237773;22;20048;-86
2024/04/23 00:05:57;;;;;;;6.75;3.55;;;;;;;1.03;82.14;101802.81;6063690;23;20007;-87
2024/04/23 00:08:36;;;;;;;4.88;3.30;;;;;;;1.06;82.17;101801.13;6102027;23;20007;-86
2024/04/23 00:14:28;;;;;;;4.65;3.22;;;2.60;99.90;;;0.99;82.39;101795.91;5967197;23;20016;-86
2024/04/23 00:17:06;;;;;;;6.22;3.80;;;;;;;0.99;82.59;101793.31;5905841;23;20045;-84
2024/04/23 00:19:35;;;;;;;6.10;3.65;;;;;;;0.96;82.77;101784.59;5928663;23;20095;-86
2024/04/23 00:22:27;;;;;;;9.05;3.35;;;2.40;99.90;;;0.92;83.03;101781.09;5963539;23;20009;-86
2024/04/23 00:27:46;;;;;;;9.50;3.80;;;;;;;0.87;83.03;101768.97;5680818;24;20090;-86
2024/04/23 00:30:14;;;;;;;5.75;3.10;;;;;;;0.85;83.26;101770.66;5789154;24;20056;-85
2024/04/23 00:33:08;;;;;;;7.03;2.80;;;;;;;0.82;83.36;101766.31;5741318;24;20032;-85
2024/04/23 00:35:46;;;;;;;4.40;2.80;;;;;;;0.79;83.21;101761.09;5746144;24;20064;-85
2024/04/23 00:38:16;;;;;;;5.47;3.10;;;;;;;0.75;83.38;101764.50;5820447;24;20026;-85
2024/04/23 00:41:26;;;;;;;5.57;3.13;;;;;;;0.71;83.15;101757.53;5889509;23;20007;-85
2024/04/23 00:43:53;;;;;;;5.45;3.60;;;2.20;99.90;;;0.63;83.46;101743.63;5960586;23;20504;-85
2024/04/23 00:46:47;;;;;;;11.13;3.75;;;;;;;0.59;83.40;101751.38;5968622;23;20023;-84
2024/04/23 00:49:25;;;;;;;6.45;3.72;;;2.10;99.90;;;0.53;83.66;101745.28;5929582;23;20048;-84
2024/04/23 00:52:18;;;;;;;7.13;3.65;;;;;;;0.48;83.95;101745.22;5943666;23;20016;-85
2024/04/23 00:54:59;;;;;;;7.85;4.53;;;2.00;99.90;;;0.40;84.56;101734.75;5907308;23;20031;-83
2024/04/23 00:57:26;;;;;;;7.63;3.92;;;;;;;0.40;84.66;101734.75;5878973;23;20470;-84
2024/04/23 01:00:05;;;;;;;5.43;3.88;;;2.00;99.90;;;0.37;84.70;101732.16;5926000;23;20725;-85
2024/04/23 01:02:56;;;;;;;9.15;4.32;;;1.90;99.90;;;0.33;84.74;101734.69;5897399;23;20005;-84
2024/04/23 01:05:28;;;;;;;8.57;4.15;;;;;;;0.31;85.00;101736.38;5972205;23;20015;-84
2024/04/23 01:08:06;;;;;;;5.95;4.00;;;;;;;0.28;84.87;101728.56;6109515;23;20003;-84
2024/04/23 01:11:08;;;;;;;;;;;;;;;;;;;;;
2024/04/23 01:13:57;;;;;;;7.93;4.22;;;;;;;0.18;85.28;101723.28;5954287;23;20036;-83
2024/04/23 01:16:39;;;;;;;9.48;4.32;;;1.80;99.90;;;0.16;85.67;101722.38;5985639;23;20285;-85
2024/04/23 01:19:47;;;;;;;8.43;3.95;;;1.80;99.90;;;0.12;85.42;101710.25;6020902;23;20021;-83
2024/04/23 01:22:56;;;;;;;6.43;4.05;;;1.70;99.90;;;0.14;85.89;101718.91;6096801;23;20071;-84
2024/04/23 01:28:27;;;;;;;;;;;;;;;;;;;;;
2024/04/23 01:31:20;;;;;;;9.82;4.43;;;1.70;99.90;;;0.11;86.24;101707.63;6157657;22;20575;-83
2024/04/23 01:33:58;;;;;;;7.57;3.90;;;1.70;99.90;;;0.13;86.73;101713.69;6108378;22;20078;-84
2024/04/23 01:37:10;;;;;;;7.25;4.00;;;1.70;99.90;;;0.12;86.78;101709.38;6167956;22;20049;-84
2024/04/23 01:39:46;;;;;;;12.60;4.13;;;1.70;99.90;;;0.09;87.04;101697.28;6070460;23;20025;-83
2024/04/23 01:42:25;;;;;;;6.88;4.13;;;1.70;99.90;;;0.15;87.45;101706.81;6097945;22;20044;-84
2024/04/23 01:45:17;;;;;;;;;;;;;;;;;;;;;
2024/04/23 01:47:47;;;;;;;9.13;5.20;;;1.70;99.90;;;0.17;87.79;101707.72;6105066;22;20027;-84
2024/04/23 01:50:16;;;;;;;7.97;5.10;;;;;;;0.21;87.82;101704.31;6180221;22;20006;-84
2024/04/23 01:53:26;;;;;;;9.15;4.57;;;1.80;99.90;;;0.24;87.88;101709.53;6451882;21;20005;-84
2024/04/23 01:56:06;;;;;;;8.50;4.90;;;1.80;99.90;;;0.24;87.83;101708.66;6281261;22;20007;-84
2024/04/23 01:58:55;;;;;;;14.55;4.50;;;;;;;0.27;87.73;101704.38;6270589;22;19996;-84
2024/04/23 02:01:56;;;;;;;8.05;4.53;;;1.90;99.90;;;0.28;87.67;101697.47;6238352;22;20008;-83
2024/04/23 02:04:24;;;;;;;10.80;4.78;;;;;;;0.29;87.86;101699.22;6222463;22;20001;-82
2024/04/23 02:07:01;;;;;;;7.93;4.50;;;;;;;0.29;88.13;101704.41;6335227;22;19999;-84
2024/04/23 02:09:28;;;;;;;7.93;4.35;;;1.90;99.90;;;0.31;88.18;101702.72;6269666;22;20000;-82
2024/04/23 02:12:34;;;;;;;;;;;;;;;;;;;;;
2024/04/23 02:15:03;;;;;;;11.45;5.00;;;1.90;99.90;;;0.36;88.15;101694.13;6240444;22;20874;-84
2024/04/23 02:17:38;;;;;;;9.02;4.32;;;;;;;0.40;88.20;101695.88;6128695;22;20012;-84
2024/04/23 02:20:08;;;;;;;7.97;4.18;;;1.90;99.90;;;0.40;88.27;101693.28;6227108;22;20027;-82
2024/04/23 02:23:20;;;;;;;7.15;4.53;;;1.90;99.90;;;0.40;88.37;101688.13;6246884;22;20021;-81
2024/04/23 02:25:57;;;;;;;7.50;4.45;;;1.90;99.90;;;0.41;88.41;101688.97;6266784;22;20040;-83
2024/04/23 02:28:38;;;;;;;8.10;4.60;;;2.00;99.90;;;0.40;88.76;101684.66;6240366;22;20527;-83
2024/04/23 02:31:25;;;;;;;10.85;4.88;;;1.90;99.90;;;0.44;88.23;101689.03;6417645;22;19995;-82
2024/04/23 02:33:56;;;;;;;10.65;5.03;;;;;;;0.44;88.51;101683.84;6414188;22;20056;-83
2024/04/23 02:36:53;;;;;;;12.90;4.82;;;2.00;99.90;;;0.46;88.36;101681.28;6460890;22;20530;-82
2024/04/23 02:39:19;;;;;;;10.05;4.60;;;2.00;99.90;;;0.40;88.59;101669.97;6322680;22;20010;-83
2024/04/23 02:41:54;;;;;;;9.27;4.53;;;2.00;99.90;;;0.43;88.43;101671.72;6353934;22;20017;-83
2024/04/23 02:44:30;;;;;;;9.80;4.47;;;2.00;99.90;;;0.39;88.75;101663.06;6390126;22;20010;-83
2024/04/23 02:47:01;;;;;;;7.88;4.88;;;2.00;99.90;;;0.43;88.83;101669.13;6295674;22;20017;-83
2024/04/23 02:49:27;;;;;;;9.05;5.13;;;2.00;99.90;;;0.48;88.84;101666.63;6310444;22;20553;-83
2024/04/23 02:52:36;;;;;;;9.57;5.68;;;2.00;99.90;;;0.45;89.00;101654.47;6265681;22;20010;-84
2024/04/23 02:55:36;;;;;;;9.85;4.80;;;2.00;99.90;;;0.52;89.13;101663.16;6399598;22;20009;-84
2024/04/23 02:58:45;;;;;;;10.90;5.05;;;2.10;99.90;;;0.50;88.88;101660.59;6130751;22;20004;-82
2024/04/23 03:01:11;;;;;;;8.02;4.60;;;;;;;0.50;88.98;101662.31;5958245;23;20016;-83
2024/04/23 03:03:46;;;;;;;9.00;5.32;;;2.10;99.90;;;0.51;89.08;101651.94;5920323;23;20013;-82
2024/04/23 03:06:15;;;;;;;8.05;4.55;;;;;;;0.55;88.94;101661.50;5945924;23;20159;-84
2024/04/23 03:09:04;;;;;;;8.60;4.97;;;2.10;99.90;;;0.57;89.26;101648.56;5964819;23;20439;-84
2024/04/23 03:11:51;;;;;;;9.80;5.40;;;2.20;99.90;;;0.57;89.19;101654.59;5939269;23;20012;-84
2024/04/23 03:14:27;;;;;;;9.32;4.95;;;2.10;99.90;;;0.60;89.24;101652.06;5907575;23;20343;-82
2024/04/23 03:16:56;;;;;;;11.82;4.60;;;2.10;99.90;;;0.58;89.34;101647.69;5861186;23;20017;-84
2024/04/23 03:19:47;;;;;;;15.55;5.20;;;2.10;99.90;;;0.59;89.31;101647.72;5951302;23;20024;-84
2024/04/23 03:22:14;;;;;;;10.50;5.18;;;;;;;0.56;89.28;101642.50;5899018;23;20469;-82
2024/04/23 03:24:40;;;;;;;12.50;4.32;;;2.20;99.90;;;0.56;89.68;101639.91;5922524;23;20312;-83
2024/04/23 03:27:47;;;;;;;8.85;5.00;;;2.10;99.90;;;0.60;89.95;101645.97;6264708;22;20039;-82
2024/04/23 03:30:16;;;;;;;8.88;4.72;;;;;;;0.58;89.99;101643.41;6125271;22;20012;-83
2024/04/23 03:33:00;;;;;;;;;;;;;;;;;;;;;
2024/04/23 03:35:30;;;;;;;11.23;5.22;;;2.20;99.90;;;0.63;90.07;101637.34;6161591;22;20098;-82
2024/04/23 03:37:55;;;;;;;12.43;5.97;;;2.20;99.90;;;0.63;89.84;101640.84;6160585;22;20016;-82
2024/04/23 03:40:21;;;;;;;9.88;5.95;;;2.20;99.90;;;0.66;90.15;101632.22;6063993;22;20006;-83
2024/04/23 03:42:47;;;;;;;9.45;5.53;;;2.20;99.90;;;0.70;89.97;101633.97;6199257;22;20004;-82
2024/04/23 03:45:28;;;;;;;11.75;4.75;;;;;;;0.76;90.11;101626.25;6133819;23;20006;-83
2024/04/23 03:48:04;;;;;;;10.40;5.45;;;2.30;99.90;;;0.78;90.53;101624.56;6208600;22;20388;-83
2024/04/23 03:51:07;;;;;;;;;;;;;;;;;;;;;
2024/04/23 03:54:00;;;;;;;8.70;5.50;;;;;;;0.87;90.49;101636.72;6126236;22;20906;-83
2024/04/23 03:56:55;;;;;;;12.32;5.68;;;2.40;99.90;;;0.89;90.39;101633.28;5985457;23;20142;-84
2024/04/23 03:59:37;;;;;;;14.88;6.10;;;2.40;99.90;;;0.89;90.79;101628.09;5912684;23;20009;-83
2024/04/23 04:07:36;;;;;;;14.10;6.47;;;;;;;0.96;90.56;101616.91;6446562;21;20023;-83
2024/04/23 04:10:15;;;;;;;11.57;5.82;;;;;;;1.00;90.86;101629.03;6416867;21;20316;-83
2024/04/23 04:13:05;;;;;;;9.98;5.65;;;;;;;1.04;90.77;101622.16;6396989;21;20076;-82
2024/04/23 04:15:35;;;;;;;11.15;6.35;;;;;;;1.08;91.02;101613.53;6547413;21;19993;-83
2024/04/23 04:18:26;;;;;;;12.05;6.35;;;2.60;99.90;;;1.09;91.15;101615.25;6538216;21;20029;-83
2024/04/23 04:20:55;;;;;;;10.20;5.40;;;;;;;1.17;91.45;101623.09;6201310;22;20461;-83
2024/04/23 04:23:48;;;;;;;11.52;5.90;;;2.70;99.90;;;1.20;91.15;101625.72;6151625;22;20017;-84
2024/04/23 04:26:26;;;;;;;10.25;5.80;;;2.70;99.90;;;1.23;91.51;101624.00;6001671;23;20333;-83
2024/04/23 04:29:26;;;;;;;11.13;5.80;;;2.70;99.90;;;1.25;90.96;101621.41;6206473;22;20109;-84
2024/04/23 04:32:18;;;;;;;10.52;5.40;;;;;;;1.27;90.73;101611.91;5967596;23;20507;-82
2024/04/23 04:34:47;;;;;;;10.13;5.25;;;2.80;99.90;;;1.26;90.86;101612.78;5937684;23;20008;-83
2024/04/23 04:37:37;;;;;;;11.43;5.70;;;2.80;99.90;;;1.32;91.20;101618.00;5929100;23;20011;-84
2024/04/23 04:40:07;;;;;;;11.15;5.85;;;2.80;99.90;;;1.31;90.83;101616.25;6044895;23;20478;-82
2024/04/23 04:42:48;;;;;;;9.77;5.47;;;;;;;1.36;90.96;101618.88;5846757;23;20021;-83
2024/04/23 04:45:37;;;;;;;9.60;5.57;;;2.90;99.90;;;1.38;90.99;101625.84;5977628;22;20444;-84
2024/04/23 04:48:28;;;;;;;;;;;;;;;;;;;;;
2024/04/23 04:51:15;;;;;;;12.82;5.35;;;2.90;99.90;;;1.40;90.66;101621.53;6361549;22;20010;-84
2024/04/23 04:53:44;;;;;;;9.98;5.10;;;;;;;1.41;91.02;101618.06;6192842;22;20572;-83
2024/04/23 04:56:40;;;;;;;8.25;4.68;;;;;;;1.42;90.69;101611.97;6256552;22;20018;-84
2024/04/23 04:59:17;;;;;;;9.77;4.65;;;2.90;99.90;;;1.43;90.50;101611.16;6281775;22;20012;-83
2024/04/23 05:02:47;;;;;;;6.45;4.25;;;3.00;99.90;;;1.48;90.61;101607.72;6168551;22;20015;-84
2024/04/23 05:05:57;;;;;;;7.22;4.55;;;3.00;99.90;;;1.49;90.25;101617.22;6136820;21;20006;-84
2024/04/23 05:12:06;;;;;;;11.73;4.93;;;3.00;99.90;;;1.46;90.39;101612.03;6172072;22;20004;-84
2024/04/23 05:15:00;;;;;;;10.52;4.68;;;3.00;99.90;;;1.49;90.42;101614.63;6105179;22;20073;-84
2024/04/23 05:17:58;;;;;;;8.02;4.55;;;3.00;99.90;;;1.46;90.29;101602.50;6101165;22;20005;-84
2024/04/23 05:20:35;;;;;;;7.53;4.13;;;;;;;1.50;90.63;101608.59;6151991;22;20007;-84
2024/04/23 05:25:57;;;;;;;9.48;3.80;;;;;;;1.54;90.84;101593.03;6242883;22;20009;-85
2024/04/23 05:28:48;;;;;;;5.40;3.65;;;;;;;1.59;90.59;101599.09;6219924;22;20021;-85
2024/04/23 05:34:26;;;;;;;8.45;4.38;;;;;;;1.67;90.22;101598.28;6135870;22;20800;-84
2024/04/23 05:37:07;;;;;;;6.15;3.63;;;;;;;1.71;90.28;101600.03;6001517;23;20006;-84
2024/04/23 05:39:35;;;;;;;7.60;4.07;;;3.20;99.90;;;1.73;90.06;101600.88;5982640;23;20119;-85
2024/04/23 05:42:29;;;;;;;9.02;3.60;;;3.20;99.90;;;1.74;90.02;101594.84;5929938;23;20554;-85
2024/04/23 05:44:55;;;;;;;6.25;3.35;;;;;;;1.79;89.58;101601.78;6105093;23;20314;-84
2024/04/23 05:47:46;;;;;;;5.93;3.83;;;;;;;1.82;89.75;101604.38;5992793;23;20004;-86
2024/04/23 05:51:17;;;;;;;10.27;3.25;;;3.30;99.90;;;1.75;89.65;101601.75;6178602;22;20015;-85
2024/04/23 05:54:59;;;;;;;;;;;;;;;;;;;;;
2024/04/23 05:57:26;;;;;;;6.90;3.55;;;;;;;1.88;88.72;101618.25;6256049;22;21000;-86
2024/04/23 06:00:07;;;;;;;5.32;3.22;;;3.40;99.90;;;1.92;88.51;101618.25;6255203;22;20417;-86
2024/04/23 06:03:00;;;;;;;5.82;3.63;;;3.20;99.90;;;1.95;88.16;101622.63;6283089;22;20004;-87
2024/04/23 06:05:26;;;;;;;7.03;3.10;;;2.60;99.90;;;1.99;88.44;101616.56;6121403;22;20057;-86
2024/04/23 06:08:18;;;;;;;6.60;3.42;;;3.50;99.90;;;2.09;88.23;101617.44;6162998;22;20033;-87
2024/04/23 06:10:46;;;;;;;6.55;3.25;;;3.50;99.90;;;2.12;88.19;101626.13;6328945;22;20076;-87
2024/04/23 06:13:27;;;;;;;6.32;3.25;;;3.60;99.90;;;2.18;88.19;101622.66;6210700;22;20014;-87
2024/04/23 06:16:54;;;;;;;4.80;2.85;;;3.60;99.90;;;2.16;87.97;101620.09;6107923;22;20009;-87
2024/04/23 06:19:20;;;;;;;3.85;2.72;;;3.60;99.90;;;2.14;87.67;101614.00;6091313;23;20008;-88
2024/04/23 06:21:56;;;;;;;9.52;2.85;;;3.70;99.90;;;2.18;87.28;101622.66;6047018;22;20028;-89
2024/04/23 06:28:06;;;;;;;;;;;3.70;99.90;;;2.13;87.29;101616.59;6133756;22;20007;-89
2024/04/23 06:30:47;;;;;;;7.32;2.90;;;;;;;2.03;87.25;101619.19;6150152;22;19924;-89
2024/04/23 06:33:26;;;;;;;4.63;2.67;;;;;;;2.03;87.48;101615.69;6223273;22;20113;-89
2024/04/23 06:36:06;;;;;;;6.63;2.95;;;;;;;2.01;87.61;101609.66;6204214;22;20011;-90
2024/04/23 06:38:46;;;;;;;5.97;2.40;;;;;;;2.03;87.22;101607.91;6156714;22;20021;-89
2024/04/23 06:42:26;;;;;;;3.70;2.47;;;3.60;99.90;;;2.18;86.81;101605.38;6189927;22;20011;-90
2024/04/23 06:45:37;;;;;;;4.68;2.95;;;3.70;99.90;;;2.25;86.79;101604.50;6311254;22;20491;-90
2024/04/23 06:48:13;;;;;;;4.43;2.75;;;;;;;2.34;86.21;101602.78;6296932;22;20004;-90
2024/04/23 06:50:57;;;;;;;;;;;3.80;99.90;;;2.33;85.98;101601.91;6284811;22;20070;-90
2024/04/23 06:53:27;;;;;;;8.07;2.50;;;;;;;2.41;85.88;101594.97;6071491;23;20479;-89
2024/04/23 06:56:37;;;;;;;5.40;2.53;;;3.90;99.90;;;2.45;85.10;101596.72;6091721;22;20006;-90
2024/04/23 06:59:56;;;;;;;;;;;;;;;;;;;;;
2024/04/23 07:02:28;;;;;;;4.55;2.28;;;4.00;99.90;;;2.54;84.73;101605.41;5938857;23;21575;-90
2024/04/23 07:08:37;;;;;;;5.27;2.17;;;4.00;99.90;;;2.41;83.22;101599.31;5992983;23;20521;-90
2024/04/23 07:17:58;;;;;;;4.57;2.53;;;;;;;2.72;82.94;101604.53;6372497;22;20484;-90
2024/04/23 07:21:30;;;;;;;3.53;2.00;;;4.20;99.90;;;2.70;82.20;101601.06;6312839;22;19995;-89
2024/04/23 07:31:46;;;;;;;2.78;1.70;;;4.30;99.90;;;2.64;79.79;101597.59;6168745;22;20377;-90
2024/04/23 07:34:59;;;;;;;3.25;1.70;;;;;;;2.72;79.99;101604.53;6088890;23;20033;-90
2024/04/23 07:41:07;;;;;;;7.10;2.78;;;;;;;3.34;80.14;101589.69;6361277;22;20005;-90
2024/04/23 07:47:18;;;;;;;4.20;2.30;;;5.00;99.90;;;3.57;78.44;101592.25;6320995;22;19999;-89
2024/04/23 07:50:10;;;;;;;4.82;2.58;;;;;;;3.63;76.89;101598.28;5977213;23;20096;-90
2024/04/23 07:59:46;;;;;;;3.63;1.90;;;;;;;3.95;75.78;101597.25;6112392;22;20392;-89
2024/04/23 08:02:28;;;;;;;5.03;2.25;;;;;;;4.21;75.36;101602.34;5941561;22;20011;-91
2024/04/23 08:10:58;;;;;;;4.82;2.00;;;6.00;99.90;;;4.62;72.09;101605.50;6470293;21;20034;-89
2024/04/23 08:13:26;;;;;;;2.80;1.85;;;;;;;4.67;71.45;101607.22;6428872;21;20023;-87
2024/04/23 08:16:16;;;;;;;5.63;1.85;;;6.20;99.90;;;4.59;70.14;101608.16;6378103;22;20423;-86
2024/04/23 08:19:15;;;;;;;2.80;1.52;;;;;;;4.65;70.21;101602.91;6371768;21;20013;-88
2024/04/23 08:21:54;;;;;;;3.38;1.55;;;;;;;4.48;70.13;101600.41;6147357;22;20009;-88
2024/04/23 08:24:20;;;;;;;3.75;2.00;;;6.20;99.90;;;4.59;70.51;101600.34;6108924;22;20068;-87
2024/04/23 08:26:47;;;;;;;4.15;2.10;;;;;;;4.69;70.69;101602.84;6075094;22;20005;-86
2024/04/23 08:29:56;;;;;;;3.80;1.83;;;6.30;99.90;;;4.97;69.71;101601.72;6093961;22;20006;-87
2024/04/23 08:32:35;;;;;;;3.05;1.90;;;;;;;5.20;68.90;101609.34;5987718;23;20008;-87
2024/04/23 08:35:49;;;;;;;3.88;1.90;;;6.60;99.90;;;5.30;67.96;101618.81;6054738;23;19999;-87
2024/04/23 08:38:27;;;;;;;6.57;2.22;;;;;;;5.32;67.73;101607.47;6009736;23;20035;-86
2024/04/23 08:40:56;;;;;;;2.90;1.70;;;;;;;5.22;66.52;101618.03;5942101;23;20092;-87
2024/04/23 08:44:07;;;;;;;4.20;1.90;;;;;;;5.18;66.66;101608.50;6020037;23;20180;-87
2024/04/23 08:47:10;;;;;;;;;;;;;;;;;;;;;
2024/04/23 08:49:56;;;;;;;5.00;1.95;;;;;;;5.32;65.81;101623.16;5817369;24;20776;-87
2024/04/23 08:52:38;;;;;;;2.78;1.52;;;6.80;99.90;;;5.23;65.61;101620.63;5799244;24;20145;-87
2024/04/23 08:55:26;;;;;;;5.43;1.75;;;;;;;5.23;65.92;101618.03;5773938;24;20006;-86
2024/04/23 08:58:16;;;;;;;6.03;2.00;;;6.80;99.90;;;5.43;65.36;101627.41;5772185;24;20062;-86
2024/04/23 09:01:22;;;;;;;;;;;;;;;;;;;;;
2024/04/23 09:04:06;;;;;;;5.13;1.80;;;;;;;5.93;64.24;101637.22;5738297;24;20740;-86
2024/04/23 09:10:25;;;;;;;5.85;2.33;;;;;;;6.51;64.38;101634.75;5529041;25;20458;-85
2024/04/23 09:13:03;;;;;;;2.80;2.00;;;7.80;99.90;;;6.64;63.58;101641.50;5549457;25;20080;-86
2024/04/23 09:15:30;;;;;;;7.75;1.42;;;;;;;6.77;61.91;101653.50;5551328;25;20043;-85
2024/04/23 09:17:57;;;;;;;3.67;1.80;;;8.00;99.90;;;6.84;61.71;101656.03;5594941;25;20043;-86
2024/04/23 09:20:47;;;;;;;7.30;1.70;;;;;;;6.99;62.87;101647.91;5557108;24;20021;-86
2024/04/23 09:23:28;;;;;;;4.55;1.80;;;8.30;99.90;;;7.13;61.40;101656.41;5691610;24;20017;-86
2024/04/23 09:26:11;;;;;;;4.97;1.50;;;8.50;99.90;;;7.30;61.80;101653.50;5683444;24;20003;-82
2024/04/23 09:28:49;;;;;;;3.58;1.77;;;8.60;99.90;;;7.39;60.54;101657.69;5756339;24;20004;-82
2024/04/23 09:31:20;;;;;;;1.67;1.20;;;8.70;99.90;;;7.52;60.74;101653.94;5757648;24;20009;-82
2024/04/23 09:33:56;;;;;;;6.20;1.83;;;8.90;99.90;;;7.71;61.31;101659.72;5788304;24;20016;-83
2024/04/23 09:36:30;;;;;;;4.88;1.92;;;9.00;99.90;;;7.93;59.18;101670.63;5651218;25;20374;-85
2024/04/23 09:39:03;;;;;;;4.43;1.92;;;9.30;99.90;;;8.25;60.03;101663.84;5684875;24;20021;-84
2024/04/23 09:41:34;;;;;;;3.75;1.70;;;9.50;99.90;;;8.60;58.48;101677.97;5727964;24;20015;-84
2024/04/23 09:44:04;;;;;;;4.97;2.10;;;9.90;99.90;;;9.03;56.73;101687.44;5928142;23;20061;-82
2024/04/23 09:46:31;;;;;;;3.97;1.50;;;10.20;99.90;;;9.12;55.20;101697.72;6022145;23;20017;-82
2024/04/23 09:49:04;;;;;;;6.15;2.13;;;10.30;99.90;;;9.12;54.35;101707.34;6093928;23;19994;-83
2024/04/23 09:51:33;;;;;;;6.95;2.00;;;10.40;99.90;;;9.19;55.44;101693.16;6098055;23;20006;-82
2024/04/23 09:54:08;;;;;;;5.03;1.90;;;10.50;99.90;;;9.30;56.08;101691.09;6211611;22;19998;-82
2024/04/23 09:56:34;;;;;;;5.38;2.15;;;10.60;99.90;;;9.42;54.31;101697.81;6306030;22;20009;-83
2024/04/23 09:59:00;;;;;;;3.63;1.73;;;10.70;99.90;;;9.50;54.61;101697.59;6434087;22;20001;-82
2024/04/23 10:01:37;;;;;;;5.35;2.10;;;10.80;99.90;;;9.40;54.73;101697.00;6439711;21;20025;-82
2024/04/23 10:04:04;;;;;;;;;;;10.70;99.90;;;8.70;54.64;101678.59;6446534;21;20002;-83
2024/04/23 10:06:39;;;;;;;6.90;2.00;;;10.10;99.90;;;8.31;54.79;101676.78;6451209;21;19929;-82
2024/04/23 10:09:25;;;;;;;4.15;1.80;;;9.70;99.90;;;8.16;55.51;101667.53;6446565;21;20007;-81
2024/04/23 10:12:05;;;;;;;4.53;1.97;;;9.50;99.90;;;7.91;55.12;101655.81;6504268;21;20077;-85
2024/04/23 10:15:14;;;;;;;4.70;2.30;;;9.30;99.90;;;7.89;57.38;101653.22;6474671;21;20120;-85
2024/04/23 10:18:05;;;;;;;6.57;2.35;;;9.30;99.90;;;8.02;56.77;101651.22;6484156;21;20474;-85
2024/04/23 10:20:51;;;;;;;4.13;2.22;;;9.40;99.90;;;8.21;57.02;101657.78;6399652;22;20017;-83
2024/04/23 10:23:19;;;;;;;3.60;2.10;;;9.50;99.90;;;8.29;55.68;101660.22;6393821;22;19997;-83
2024/04/23 10:26:07;;;;;;;7.55;2.30;;;9.60;99.90;;;8.35;55.82;101656.59;6406144;21;20021;-83
2024/04/23 10:28:36;;;;;;;5.55;2.03;;;9.60;99.90;;;8.34;56.02;101649.66;6432588;21;20120;-84
2024/04/23 10:31:10;;;;;;;5.60;2.35;;;9.60;99.90;;;8.25;53.49;101663.84;6475389;21;20070;-83
2024/04/23 10:33:38;;;;;;;4.10;2.13;;;9.60;99.90;;;8.27;55.60;101654.19;6419116;21;20476;-83
2024/04/23 10:36:05;;;;;;;4.70;2.20;;;9.60;99.90;;;8.43;56.93;101648.63;6420106;21;19993;-83
2024/04/23 10:38:39;;;;;;;4.65;1.92;;;9.70;99.90;;;8.61;55.45;101648.16;6431068;21;20008;-82
2024/04/23 10:41:06;;;;;;;3.60;2.22;;;;;;;9.02;57.81;101643.66;6410563;21;20000;-85
2024/04/23 10:43:36;;;;;;;3.90;2.33;;;;;;;9.40;55.94;101653.19;6474684;21;20028;-84
2024/04/23 10:46:06;;;;;;;4.28;2.13;;;10.60;99.90;;;9.40;54.14;101665.47;6474464;21;20007;-83
2024/04/23 10:48:37;;;;;;;4.18;2.08;;;10.70;99.90;;;9.34;53.86;101657.72;6482233;21;19992;-83
2024/04/23 10:51:14;;;;;;;4.75;2.38;;;10.60;99.90;;;9.27;52.22;101661.44;6391565;21;19996;-83
2024/04/23 10:53:40;;;;;;;3.75;2.50;;;10.50;99.90;;;9.07;53.22;101660.19;6399049;21;20008;-85
2024/04/23 10:56:19;;;;;;;6.30;2.65;;;10.30;99.90;;;8.88;52.56;101657.16;6390110;21;20012;-83
2024/04/23 10:58:45;;;;;;;6.93;3.17;;;10.30;99.90;;;8.91;54.05;101651.81;6436434;21;20340;-83
2024/04/23 11:01:22;;;;;;;6.07;3.00;;;10.30;99.90;;;8.98;54.84;101642.88;6404767;21;20071;-82
2024/04/23 11:04:07;;;;;;;8.77;3.03;;;10.40;99.90;;;9.18;55.79;101631.00;6421908;21;20015;-83
2024/04/23 11:06:41;;;;;;;9.95;2.70;;;10.60;99.90;;;9.46;56.15;101623.25;6447467;21;20004;-85
2024/04/23 11:09:20;;;;;;;5.75;2.63;;;10.80;99.90;;;9.72;55.40;101625.13;6381015;22;20001;-83
2024/04/23 11:12:02;;;;;;;6.68;2.78;;;11.00;99.90;;;9.85;51.94;101651.94;6308417;22;19999;-83
2024/04/23 11:14:41;;;;;;;10.57;2.88;;;11.10;99.90;;;9.69;51.40;101663.78;6458728;21;20631;-84
2024/04/23 11:17:07;;;;;;;4.55;2.55;;;10.80;99.90;;;9.21;49.94;101654.56;6422247;21;20074;-83
2024/04/23 11:19:51;;;;;;;4.47;2.38;;;10.50;99.90;;;8.88;51.68;101645.78;6357248;21;19994;-82
2024/04/23 11:22:59;;;;;;;4.80;2.42;;;10.20;99.90;;;8.62;53.01;101634.16;6260058;22;20013;-82
2024/04/23 11:25:36;;;;;;;6.07;2.38;;;10.00;99.90;;;8.44;53.04;101629.31;6293434;22;20008;-83
2024/04/23 11:28:04;;;;;;;9.30;3.33;;;;;;;8.45;53.59;101631.06;6354369;21;20539;-82
2024/04/23 11:30:44;;;;;;;4.80;3.13;;;9.90;99.90;;;8.75;55.01;101625.06;6468715;21;20005;-83
2024/04/23 11:33:13;;;;;;;4.22;2.58;;;10.10;99.90;;;9.08;53.72;101632.16;6376691;21;19997;-86
2024/04/23 11:35:58;;;;;;;5.57;2.53;;;10.40;99.90;;;9.35;54.32;101627.91;6329977;21;20001;-86
2024/04/23 11:38:26;;;;;;;6.75;2.70;;;;;;;9.56;53.50;101627.31;6385970;21;20008;-86
2024/04/23 11:41:42;;;;;;;6.10;2.92;;;10.90;99.90;;;9.83;53.41;101633.56;6394400;21;20474;-86
2024/04/23 11:44:01;;;;;;;7.95;3.00;;;;;;;9.70;50.46;101647.09;6414665;21;20431;-84
2024/04/23 11:46:27;;;;;;;3.63;2.40;;;11.00;99.90;;;9.62;50.08;101647.31;6421238;21;20016;-85
2024/04/23 11:48:53;;;;;;;3.35;2.20;;;10.90;99.90;;;9.45;49.97;101648.63;6340591;21;20219;-85
2024/04/23 11:51:19;;;;;;;5.10;2.60;;;10.80;99.90;;;9.39;51.47;101645.31;6415577;21;20407;-81
2024/04/23 11:53:54;;;;;;;4.70;2.55;;;10.60;99.90;;;9.17;51.19;101632.75;6413060;21;20458;-86
2024/04/23 11:56:20;;;;;;;4.03;2.70;;;10.40;99.90;;;8.96;50.74;101620.16;6347700;22;19993;-85
2024/04/23 11:58:46;;;;;;;8.07;2.80;;;10.30;99.90;;;8.80;51.14;101620.56;6409202;21;20112;-85
2024/04/23 12:01:17;;;;;;;4.93;2.83;;;10.20;99.90;;;8.79;53.00;101608.34;6424598;21;24991;-84
2024/04/23 12:03:43;;;;;;;6.15;2.90;;;10.10;99.90;;;8.77;52.89;101614.53;6354468;21;20032;-85
2024/04/23 12:06:10;;;;;;;7.97;2.90;;;10.10;99.90;;;8.78;54.14;101600.50;6384289;21;20810;-83
2024/04/23 12:08:36;;;;;;;6.80;3.38;;;9.90;99.90;;;8.42;54.72;101597.84;6393640;21;20027;-83
2024/04/23 12:11:06;;;;;;;5.65;3.53;;;9.70;99.90;;;8.15;55.66;101576.59;6537082;21;20496;-85
2024/04/23 12:13:35;;;;;;;6.30;3.40;;;9.50;99.90;;;8.12;57.27;101567.91;6438617;21;20019;-85
2024/04/23 12:16:04;;;;;;;9.02;3.85;;;;;;;8.28;57.65;101564.06;6424198;21;20012;-84
2024/04/23 12:18:30;;;;;;;7.07;3.55;;;9.70;99.90;;;8.42;56.43;101563.75;6353140;22;20005;-84
2024/04/23 12:21:02;;;;;;;9.50;3.42;;;9.80;99.90;;;8.63;56.86;101562.34;6377470;21;20044;-84
2024/04/23 12:23:31;;;;;;;6.45;3.33;;;9.90;99.90;;;8.78;55.72;101563.72;6386846;21;20012;-84
2024/04/23 12:25:57;;;;;;;5.40;3.17;;;10.00;99.90;;;8.71;55.42;101567.44;6381784;21;20436;-84
2024/04/23 12:28:23;;;;;;;5.68;3.28;;;9.90;99.90;;;8.43;54.88;101565.47;6382151;21;19993;-84
2024/04/23 12:30:57;;;;;;;7.55;3.75;;;9.90;99.90;;;8.42;55.81;101550.63;6426543;21;19996;-84
2024/04/23 12:33:28;;;;;;;9.40;3.60;;;9.80;99.90;;;8.46;56.03;101549.63;6420540;21;20039;-84
2024/04/23 12:36:08;;;;;;;8.35;3.90;;;9.70;99.90;;;8.46;56.59;101547.03;6487879;21;20080;-85
2024/04/23 12:38:47;;;;;;;6.47;3.40;;;9.80;99.90;;;8.55;57.00;101549.44;6364041;21;20022;-83
2024/04/23 12:41:25;;;;;;;8.00;3.50;;;9.90;99.90;;;8.69;58.02;101546.44;6405349;21;19992;-84
2024/04/23 12:43:52;;;;;;;7.53;3.45;;;9.90;99.90;;;8.80;57.31;101540.91;6447839;21;20004;-85
2024/04/23 12:46:27;;;;;;;6.88;3.00;;;10.00;99.90;;;8.88;55.95;101538.97;6416604;22;20018;-85
2024/04/23 12:48:53;;;;;;;8.60;3.28;;;10.10;99.90;;;8.98;55.27;101550.06;6385270;21;19996;-86
2024/04/23 12:51:42;;;;;;;8.00;2.80;;;10.20;99.90;;;9.04;55.57;101542.88;6350134;21;20368;-84
2024/04/23 12:54:12;;;;;;;5.18;2.67;;;10.40;99.90;;;9.26;54.69;101544.91;6383840;21;20005;-86
2024/04/23 12:56:39;;;;;;;4.97;2.72;;;;;;;9.39;54.29;101554.16;6398942;21;19997;-85
2024/04/23 12:59:13;;;;;;;5.72;2.78;;;10.60;99.90;;;9.36;53.27;101553.41;6429567;21;20009;-84
2024/04/23 13:01:38;;;;;;;4.63;2.70;;;10.60;99.90;;;9.42;53.59;101554.09;6365407;21;20076;-84
2024/04/23 13:04:04;;;;;;;7.75;3.13;;;10.70;99.90;;;9.49;54.38;101553.94;6414461;21;20005;-85
2024/04/23 13:06:35;;;;;;;4.95;2.50;;;10.70;99.90;;;9.55;53.99;101553.75;6362133;21;20011;-84
2024/04/23 13:09:05;;;;;;;6.78;3.13;;;;;;;9.50;53.18;101551.25;6406196;21;20008;-85